sensor_id;sensor_type;location;lat;lon;timestamp;temperature;humidity
78541;SHT31;67835;51.968;5.646;2023-05-21T00:00:39;17.5;52.6
78541;SHT31;67835;51.968;5.646;2023-05-21T00:03:07;17.5;52.6
78541;SHT31;67835;51.968;5.646;2023-05-21T00:05:42;17.5;52.7
78541;SHT31;67835;51.968;5.646;2023-05-21T00:08:12;17.5;52.9
78541;SHT31;67835;51.968;5.646;2023-05-21T00:10:41;17.5;53.0
78541;SHT31;67835;51.968;5.646;2023-05-21T00:13:09;17.5;52.9
78541;SHT31;67835;51.968;5.646;2023-05-21T00:15:38;17.5;53.2
78541;SHT31;67835;51.968;5.646;2023-05-21T00:18:08;17.5;53.0
78541;SHT31;67835;51.968;5.646;2023-05-21T00:20:37;17.5;53.0
78541;SHT31;67835;51.968;5.646;2023-05-21T00:23:06;17.5;53.0
78541;SHT31;67835;51.968;5.646;2023-05-21T00:25:37;17.5;53.1
78541;SHT31;67835;51.968;5.646;2023-05-21T00:28:06;17.5;53.1
78541;SHT31;67835;51.968;5.646;2023-05-21T00:30:34;17.5;53.1
78541;SHT31;67835;51.968;5.646;2023-05-21T00:33:03;17.5;53.1
78541;SHT31;67835;51.968;5.646;2023-05-21T00:35:31;17.5;53.5
78541;SHT31;67835;51.968;5.646;2023-05-21T00:38:00;17.5;53.3
78541;SHT31;67835;51.968;5.646;2023-05-21T00:40:29;17.5;53.2
78541;SHT31;67835;51.968;5.646;2023-05-21T00:43:00;17.6;53.1
78541;SHT31;67835;51.968;5.646;2023-05-21T00:45:29;17.6;53.0
78541;SHT31;67835;51.968;5.646;2023-05-21T00:47:57;17.6;53.1
78541;SHT31;67835;51.968;5.646;2023-05-21T00:50:28;17.6;53.3
78541;SHT31;67835;51.968;5.646;2023-05-21T00:52:57;17.7;53.2
78541;SHT31;67835;51.968;5.646;2023-05-21T00:55:26;17.7;53.0
78541;SHT31;67835;51.968;5.646;2023-05-21T00:57:57;17.8;53.0
78541;SHT31;67835;51.968;5.646;2023-05-21T01:00:28;17.8;52.8
78541;SHT31;67835;51.968;5.646;2023-05-21T01:02:58;17.9;53.1
78541;SHT31;67835;51.968;5.646;2023-05-21T01:05:28;17.9;52.9
78541;SHT31;67835;51.968;5.646;2023-05-21T01:07:58;17.9;52.8
78541;SHT31;67835;51.968;5.646;2023-05-21T01:10:28;18.0;52.5
78541;SHT31;67835;51.968;5.646;2023-05-21T01:12:58;18.0;52.5
78541;SHT31;67835;51.968;5.646;2023-05-21T01:15:27;18.0;52.3
78541;SHT31;67835;51.968;5.646;2023-05-21T01:17:56;18.0;52.2
78541;SHT31;67835;51.968;5.646;2023-05-21T01:20:26;18.1;52.5
78541;SHT31;67835;51.968;5.646;2023-05-21T01:22:58;18.1;52.1
78541;SHT31;67835;51.968;5.646;2023-05-21T01:25:26;18.1;52.2
78541;SHT31;67835;51.968;5.646;2023-05-21T01:27:55;18.1;52.1
78541;SHT31;67835;51.968;5.646;2023-05-21T01:30:24;18.1;52.4
78541;SHT31;67835;51.968;5.646;2023-05-21T01:32:59;18.1;52.1
78541;SHT31;67835;51.968;5.646;2023-05-21T01:35:33;18.1;52.1
78541;SHT31;67835;51.968;5.646;2023-05-21T01:38:11;18.1;52.1
78541;SHT31;67835;51.968;5.646;2023-05-21T01:40:46;18.1;52.1
78541;SHT31;67835;51.968;5.646;2023-05-21T01:43:19;18.1;52.2
78541;SHT31;67835;51.968;5.646;2023-05-21T01:45:54;18.1;52.1
78541;SHT31;67835;51.968;5.646;2023-05-21T01:48:26;18.1;52.2
78541;SHT31;67835;51.968;5.646;2023-05-21T01:50:59;18.1;52.1
78541;SHT31;67835;51.968;5.646;2023-05-21T01:53:29;18.1;52.3
78541;SHT31;67835;51.968;5.646;2023-05-21T01:55:57;18.1;52.2
78541;SHT31;67835;51.968;5.646;2023-05-21T01:58:28;18.1;52.7
78541;SHT31;67835;51.968;5.646;2023-05-21T02:00:57;18.1;52.4
78541;SHT31;67835;51.968;5.646;2023-05-21T02:03:27;18.1;52.3
78541;SHT31;67835;51.968;5.646;2023-05-21T02:05:56;18.1;52.4
78541;SHT31;67835;51.968;5.646;2023-05-21T02:08:25;18.1;52.5
78541;SHT31;67835;51.968;5.646;2023-05-21T02:10:55;18.1;52.5
78541;SHT31;67835;51.968;5.646;2023-05-21T02:13:23;18.1;52.5
78541;SHT31;67835;51.968;5.646;2023-05-21T02:15:52;18.1;53.0
78541;SHT31;67835;51.968;5.646;2023-05-21T02:18:21;18.0;53.1
78541;SHT31;67835;51.968;5.646;2023-05-21T02:20:51;18.0;52.7
78541;SHT31;67835;51.968;5.646;2023-05-21T02:23:20;18.0;53.0
78541;SHT31;67835;51.968;5.646;2023-05-21T02:25:48;18.1;53.1
78541;SHT31;67835;51.968;5.646;2023-05-21T02:28:17;18.1;52.9
78541;SHT31;67835;51.968;5.646;2023-05-21T02:30:46;18.1;53.0
78541;SHT31;67835;51.968;5.646;2023-05-21T02:33:15;18.1;53.0
78541;SHT31;67835;51.968;5.646;2023-05-21T02:35:45;18.1;53.0
78541;SHT31;67835;51.968;5.646;2023-05-21T02:38:13;18.1;52.9
78541;SHT31;67835;51.968;5.646;2023-05-21T02:40:44;18.1;53.1
78541;SHT31;67835;51.968;5.646;2023-05-21T02:43:13;18.1;53.1
78541;SHT31;67835;51.968;5.646;2023-05-21T02:45:41;18.1;53.1
78541;SHT31;67835;51.968;5.646;2023-05-21T02:48:10;18.1;53.1
78541;SHT31;67835;51.968;5.646;2023-05-21T02:50:39;18.0;53.2
78541;SHT31;67835;51.968;5.646;2023-05-21T02:53:07;18.0;53.1
78541;SHT31;67835;51.968;5.646;2023-05-21T02:55:36;18.0;53.1
78541;SHT31;67835;51.968;5.646;2023-05-21T02:58:04;18.0;53.4
78541;SHT31;67835;51.968;5.646;2023-05-21T03:00:33;18.0;53.4
78541;SHT31;67835;51.968;5.646;2023-05-21T03:03:01;18.0;53.4
78541;SHT31;67835;51.968;5.646;2023-05-21T03:05:30;18.0;53.4
78541;SHT31;67835;51.968;5.646;2023-05-21T03:08:00;17.9;53.4
78541;SHT31;67835;51.968;5.646;2023-05-21T03:10:29;17.9;53.6
78541;SHT31;67835;51.968;5.646;2023-05-21T03:12:58;17.9;53.6
78541;SHT31;67835;51.968;5.646;2023-05-21T03:15:30;17.9;53.7
78541;SHT31;67835;51.968;5.646;2023-05-21T03:17:58;17.9;54.1
78541;SHT31;67835;51.968;5.646;2023-05-21T03:20:30;17.9;54.0
78541;SHT31;67835;51.968;5.646;2023-05-21T03:22:58;17.9;54.0
78541;SHT31;67835;51.968;5.646;2023-05-21T03:25:29;17.9;54.0
78541;SHT31;67835;51.968;5.646;2023-05-21T03:27:58;17.9;53.9
78541;SHT31;67835;51.968;5.646;2023-05-21T03:30:28;17.9;54.0
78541;SHT31;67835;51.968;5.646;2023-05-21T03:32:57;17.9;54.3
78541;SHT31;67835;51.968;5.646;2023-05-21T03:35:28;17.9;54.3
78541;SHT31;67835;51.968;5.646;2023-05-21T03:37:57;17.9;54.0
78541;SHT31;67835;51.968;5.646;2023-05-21T03:40:26;17.9;54.3
78541;SHT31;67835;51.968;5.646;2023-05-21T03:42:54;17.9;54.2
78541;SHT31;67835;51.968;5.646;2023-05-21T03:45:23;17.9;54.3
78541;SHT31;67835;51.968;5.646;2023-05-21T03:47:52;18.0;54.1
78541;SHT31;67835;51.968;5.646;2023-05-21T03:50:21;18.0;54.3
78541;SHT31;67835;51.968;5.646;2023-05-21T03:52:50;18.0;54.3
78541;SHT31;67835;51.968;5.646;2023-05-21T03:55:18;18.0;54.3
78541;SHT31;67835;51.968;5.646;2023-05-21T03:57:47;18.0;54.2
78541;SHT31;67835;51.968;5.646;2023-05-21T04:00:16;18.0;54.4
78541;SHT31;67835;51.968;5.646;2023-05-21T04:02:45;18.1;54.0
78541;SHT31;67835;51.968;5.646;2023-05-21T04:05:14;18.1;54.3
78541;SHT31;67835;51.968;5.646;2023-05-21T04:07:42;18.1;54.5
78541;SHT31;67835;51.968;5.646;2023-05-21T04:10:12;18.1;54.2
78541;SHT31;67835;51.968;5.646;2023-05-21T04:12:40;18.1;54.4
78541;SHT31;67835;51.968;5.646;2023-05-21T04:15:09;18.1;54.6
78541;SHT31;67835;51.968;5.646;2023-05-21T04:17:39;18.1;54.5
78541;SHT31;67835;51.968;5.646;2023-05-21T04:20:11;18.1;54.7
78541;SHT31;67835;51.968;5.646;2023-05-21T04:22:42;18.1;54.6
78541;SHT31;67835;51.968;5.646;2023-05-21T04:25:11;18.1;54.6
78541;SHT31;67835;51.968;5.646;2023-05-21T04:27:39;18.1;55.0
78541;SHT31;67835;51.968;5.646;2023-05-21T04:30:09;18.1;55.0
78541;SHT31;67835;51.968;5.646;2023-05-21T04:32:39;18.1;55.1
78541;SHT31;67835;51.968;5.646;2023-05-21T04:35:11;18.1;54.8
78541;SHT31;67835;51.968;5.646;2023-05-21T04:37:40;18.1;54.9
78541;SHT31;67835;51.968;5.646;2023-05-21T04:40:12;18.1;55.2
78541;SHT31;67835;51.968;5.646;2023-05-21T04:42:43;18.1;55.0
78541;SHT31;67835;51.968;5.646;2023-05-21T04:45:13;18.1;55.3
78541;SHT31;67835;51.968;5.646;2023-05-21T04:47:43;18.1;55.2
78541;SHT31;67835;51.968;5.646;2023-05-21T04:50:13;18.2;55.3
78541;SHT31;67835;51.968;5.646;2023-05-21T04:52:41;18.2;55.2
78541;SHT31;67835;51.968;5.646;2023-05-21T04:55:11;18.3;55.0
78541;SHT31;67835;51.968;5.646;2023-05-21T04:57:41;18.3;55.1
78541;SHT31;67835;51.968;5.646;2023-05-21T05:00:10;18.3;55.0
78541;SHT31;67835;51.968;5.646;2023-05-21T05:02:39;18.3;55.2
78541;SHT31;67835;51.968;5.646;2023-05-21T05:05:08;18.3;55.0
78541;SHT31;67835;51.968;5.646;2023-05-21T05:07:37;18.3;54.9
78541;SHT31;67835;51.968;5.646;2023-05-21T05:10:06;18.3;54.9
78541;SHT31;67835;51.968;5.646;2023-05-21T05:12:36;18.3;55.1
78541;SHT31;67835;51.968;5.646;2023-05-21T05:15:05;18.3;55.1
78541;SHT31;67835;51.968;5.646;2023-05-21T05:17:34;18.4;55.3
78541;SHT31;67835;51.968;5.646;2023-05-21T05:20:05;18.4;55.7
78541;SHT31;67835;51.968;5.646;2023-05-21T05:22:37;18.4;55.3
78541;SHT31;67835;51.968;5.646;2023-05-21T05:25:06;18.4;55.2
78541;SHT31;67835;51.968;5.646;2023-05-21T05:27:37;18.5;55.1
78541;SHT31;67835;51.968;5.646;2023-05-21T05:30:07;18.5;55.1
78541;SHT31;67835;51.968;5.646;2023-05-21T05:32:36;18.5;55.1
78541;SHT31;67835;51.968;5.646;2023-05-21T05:35:06;18.5;55.0
78541;SHT31;67835;51.968;5.646;2023-05-21T05:37:35;18.5;55.2
78541;SHT31;67835;51.968;5.646;2023-05-21T05:40:04;18.5;55.3
78541;SHT31;67835;51.968;5.646;2023-05-21T05:42:33;18.5;55.3
78541;SHT31;67835;51.968;5.646;2023-05-21T05:45:02;18.5;55.4
78541;SHT31;67835;51.968;5.646;2023-05-21T05:47:31;18.5;55.5
78541;SHT31;67835;51.968;5.646;2023-05-21T05:49:59;18.5;55.6
78541;SHT31;67835;51.968;5.646;2023-05-21T05:52:28;18.6;55.4
78541;SHT31;67835;51.968;5.646;2023-05-21T05:54:56;18.6;55.5
78541;SHT31;67835;51.968;5.646;2023-05-21T05:57:27;18.6;55.7
78541;SHT31;67835;51.968;5.646;2023-05-21T05:59:55;18.7;55.4
78541;SHT31;67835;51.968;5.646;2023-05-21T06:02:24;18.7;55.5
78541;SHT31;67835;51.968;5.646;2023-05-21T06:04:52;18.7;55.6
78541;SHT31;67835;51.968;5.646;2023-05-21T06:07:21;18.7;55.4
78541;SHT31;67835;51.968;5.646;2023-05-21T06:09:50;18.8;55.8
78541;SHT31;67835;51.968;5.646;2023-05-21T06:12:18;18.8;55.4
78541;SHT31;67835;51.968;5.646;2023-05-21T06:14:47;18.8;55.0
78541;SHT31;67835;51.968;5.646;2023-05-21T06:17:16;18.9;55.1
78541;SHT31;67835;51.968;5.646;2023-05-21T06:19:44;18.9;54.9
78541;SHT31;67835;51.968;5.646;2023-05-21T06:22:13;19.0;55.2
78541;SHT31;67835;51.968;5.646;2023-05-21T06:24:42;19.0;54.9
78541;SHT31;67835;51.968;5.646;2023-05-21T06:27:11;19.1;54.7
78541;SHT31;67835;51.968;5.646;2023-05-21T06:29:39;19.1;54.4
78541;SHT31;67835;51.968;5.646;2023-05-21T06:32:09;19.2;54.5
78541;SHT31;67835;51.968;5.646;2023-05-21T06:34:37;19.2;54.4
78541;SHT31;67835;51.968;5.646;2023-05-21T06:37:06;19.2;54.7
78541;SHT31;67835;51.968;5.646;2023-05-21T06:39:34;19.3;54.5
78541;SHT31;67835;51.968;5.646;2023-05-21T06:42:04;19.3;54.6
78541;SHT31;67835;51.968;5.646;2023-05-21T06:44:32;19.4;54.7
78541;SHT31;67835;51.968;5.646;2023-05-21T06:47:01;19.4;54.5
78541;SHT31;67835;51.968;5.646;2023-05-21T06:49:30;19.5;54.7
78541;SHT31;67835;51.968;5.646;2023-05-21T06:51:59;19.6;54.7
78541;SHT31;67835;51.968;5.646;2023-05-21T06:54:28;19.6;54.6
78541;SHT31;67835;51.968;5.646;2023-05-21T06:56:57;19.7;54.5
78541;SHT31;67835;51.968;5.646;2023-05-21T06:59:25;19.8;53.6
78541;SHT31;67835;51.968;5.646;2023-05-21T07:01:54;19.9;54.1
78541;SHT31;67835;51.968;5.646;2023-05-21T07:04:25;20.0;53.4
78541;SHT31;67835;51.968;5.646;2023-05-21T07:06:54;20.1;53.5
78541;SHT31;67835;51.968;5.646;2023-05-21T07:09:23;20.1;53.3
78541;SHT31;67835;51.968;5.646;2023-05-21T07:11:51;20.2;52.8
78541;SHT31;67835;51.968;5.646;2023-05-21T07:14:20;20.3;52.7
78541;SHT31;67835;51.968;5.646;2023-05-21T07:16:48;20.4;52.4
78541;SHT31;67835;51.968;5.646;2023-05-21T07:19:19;20.6;53.3
78541;SHT31;67835;51.968;5.646;2023-05-21T07:21:48;20.7;52.5
78541;SHT31;67835;51.968;5.646;2023-05-21T07:24:16;20.9;51.6
78541;SHT31;67835;51.968;5.646;2023-05-21T07:26:48;21.1;51.2
78541;SHT31;67835;51.968;5.646;2023-05-21T07:29:16;21.3;50.4
78541;SHT31;67835;51.968;5.646;2023-05-21T07:31:45;21.5;50.7
78541;SHT31;67835;51.968;5.646;2023-05-21T07:34:13;21.7;50.1
78541;SHT31;67835;51.968;5.646;2023-05-21T07:36:42;21.9;49.0
78541;SHT31;67835;51.968;5.646;2023-05-21T07:39:10;22.0;49.0
78541;SHT31;67835;51.968;5.646;2023-05-21T07:41:39;22.2;49.0
78541;SHT31;67835;51.968;5.646;2023-05-21T07:44:08;22.4;48.2
78541;SHT31;67835;51.968;5.646;2023-05-21T07:46:36;22.7;48.2
78541;SHT31;67835;51.968;5.646;2023-05-21T07:49:04;22.9;47.2
78541;SHT31;67835;51.968;5.646;2023-05-21T07:51:34;23.2;46.7
78541;SHT31;67835;51.968;5.646;2023-05-21T07:54:02;23.4;46.3
78541;SHT31;67835;51.968;5.646;2023-05-21T07:56:31;23.6;45.4
78541;SHT31;67835;51.968;5.646;2023-05-21T07:58:59;23.8;45.2
78541;SHT31;67835;51.968;5.646;2023-05-21T08:01:28;24.0;44.7
78541;SHT31;67835;51.968;5.646;2023-05-21T08:03:58;24.2;45.8
78541;SHT31;67835;51.968;5.646;2023-05-21T08:06:31;24.5;44.9
78541;SHT31;67835;51.968;5.646;2023-05-21T08:09:03;24.8;43.5
78541;SHT31;67835;51.968;5.646;2023-05-21T08:11:32;25.1;43.0
78541;SHT31;67835;51.968;5.646;2023-05-21T08:14:01;25.3;42.5
78541;SHT31;67835;51.968;5.646;2023-05-21T08:16:29;25.5;41.8
78541;SHT31;67835;51.968;5.646;2023-05-21T08:18:58;25.6;42.3
78541;SHT31;67835;51.968;5.646;2023-05-21T08:21:27;25.8;42.1
78541;SHT31;67835;51.968;5.646;2023-05-21T08:23:56;26.0;41.5
78541;SHT31;67835;51.968;5.646;2023-05-21T08:26:25;26.2;41.7
78541;SHT31;67835;51.968;5.646;2023-05-21T08:28:54;26.4;41.7
78541;SHT31;67835;51.968;5.646;2023-05-21T08:31:25;26.7;41.1
78541;SHT31;67835;51.968;5.646;2023-05-21T08:33:54;27.0;39.8
78541;SHT31;67835;51.968;5.646;2023-05-21T08:36:23;27.4;39.6
78541;SHT31;67835;51.968;5.646;2023-05-21T08:38:52;27.7;39.0
78541;SHT31;67835;51.968;5.646;2023-05-21T08:41:22;28.0;38.5
78541;SHT31;67835;51.968;5.646;2023-05-21T08:43:56;28.3;37.8
78541;SHT31;67835;51.968;5.646;2023-05-21T08:46:29;28.6;36.6
78541;SHT31;67835;51.968;5.646;2023-05-21T08:49:01;28.8;36.8
78541;SHT31;67835;51.968;5.646;2023-05-21T08:51:30;28.9;36.2
78541;SHT31;67835;51.968;5.646;2023-05-21T08:54:01;29.1;35.7
78541;SHT31;67835;51.968;5.646;2023-05-21T08:56:33;29.2;35.5
78541;SHT31;67835;51.968;5.646;2023-05-21T08:59:04;29.3;34.6
78541;SHT31;67835;51.968;5.646;2023-05-21T09:01:33;29.4;35.0
78541;SHT31;67835;51.968;5.646;2023-05-21T09:04:04;29.5;35.3
78541;SHT31;67835;51.968;5.646;2023-05-21T09:06:34;29.5;34.6
78541;SHT31;67835;51.968;5.646;2023-05-21T09:09:12;29.6;35.0
78541;SHT31;67835;51.968;5.646;2023-05-21T09:11:43;29.7;34.7
78541;SHT31;67835;51.968;5.646;2023-05-21T09:14:13;29.7;34.5
78541;SHT31;67835;51.968;5.646;2023-05-21T09:16:44;29.8;34.4
78541;SHT31;67835;51.968;5.646;2023-05-21T09:19:14;29.8;34.3
78541;SHT31;67835;51.968;5.646;2023-05-21T09:21:44;29.8;34.8
78541;SHT31;67835;51.968;5.646;2023-05-21T09:24:13;29.8;34.3
78541;SHT31;67835;51.968;5.646;2023-05-21T09:26:43;29.9;34.4
78541;SHT31;67835;51.968;5.646;2023-05-21T09:29:15;29.9;34.5
78541;SHT31;67835;51.968;5.646;2023-05-21T09:31:45;30.0;34.5
78541;SHT31;67835;51.968;5.646;2023-05-21T09:34:13;30.0;33.8
78541;SHT31;67835;51.968;5.646;2023-05-21T09:36:44;30.1;34.5
78541;SHT31;67835;51.968;5.646;2023-05-21T09:39:29;30.1;33.9
78541;SHT31;67835;51.968;5.646;2023-05-21T09:41:59;30.2;34.7
78541;SHT31;67835;51.968;5.646;2023-05-21T09:44:31;30.3;34.0
78541;SHT31;67835;51.968;5.646;2023-05-21T09:47:04;30.4;33.9
78541;SHT31;67835;51.968;5.646;2023-05-21T09:49:36;30.6;34.6
78541;SHT31;67835;51.968;5.646;2023-05-21T09:52:05;30.8;34.0
78541;SHT31;67835;51.968;5.646;2023-05-21T09:54:34;30.9;33.5
78541;SHT31;67835;51.968;5.646;2023-05-21T09:57:02;31.1;32.0
78541;SHT31;67835;51.968;5.646;2023-05-21T09:59:38;31.3;32.8
78541;SHT31;67835;51.968;5.646;2023-05-21T10:02:18;31.5;33.0
78541;SHT31;67835;51.968;5.646;2023-05-21T10:04:49;31.7;33.4
78541;SHT31;67835;51.968;5.646;2023-05-21T10:07:20;31.9;32.1
78541;SHT31;67835;51.968;5.646;2023-05-21T10:09:53;32.1;32.5
78541;SHT31;67835;51.968;5.646;2023-05-21T10:12:24;32.4;31.4
78541;SHT31;67835;51.968;5.646;2023-05-21T10:14:59;32.6;30.6
78541;SHT31;67835;51.968;5.646;2023-05-21T10:17:29;32.7;30.9
78541;SHT31;67835;51.968;5.646;2023-05-21T10:19:59;32.8;31.1
78541;SHT31;67835;51.968;5.646;2023-05-21T10:22:28;33.0;30.6
78541;SHT31;67835;51.968;5.646;2023-05-21T10:24:58;33.1;29.9
78541;SHT31;67835;51.968;5.646;2023-05-21T10:27:29;33.2;30.3
78541;SHT31;67835;51.968;5.646;2023-05-21T10:29:59;33.4;31.0
78541;SHT31;67835;51.968;5.646;2023-05-21T10:32:27;33.6;29.7
78541;SHT31;67835;51.968;5.646;2023-05-21T10:34:58;33.8;29.4
78541;SHT31;67835;51.968;5.646;2023-05-21T10:37:28;34.0;29.3
78541;SHT31;67835;51.968;5.646;2023-05-21T10:39:57;34.0;28.8
78541;SHT31;67835;51.968;5.646;2023-05-21T10:42:47;34.1;28.9
78541;SHT31;67835;51.968;5.646;2023-05-21T10:45:28;34.1;28.8
78541;SHT31;67835;51.968;5.646;2023-05-21T10:48:16;34.1;29.4
78541;SHT31;67835;51.968;5.646;2023-05-21T10:51:12;34.3;29.5
78541;SHT31;67835;51.968;5.646;2023-05-21T10:54:07;34.5;29.0
78541;SHT31;67835;51.968;5.646;2023-05-21T10:56:43;34.7;29.0
78541;SHT31;67835;51.968;5.646;2023-05-21T10:59:27;34.8;28.7
78541;SHT31;67835;51.968;5.646;2023-05-21T11:01:58;35.0;29.3
78541;SHT31;67835;51.968;5.646;2023-05-21T11:04:27;35.1;28.5
78541;SHT31;67835;51.968;5.646;2023-05-21T11:06:57;35.4;28.4
78541;SHT31;67835;51.968;5.646;2023-05-21T11:09:27;35.6;28.7
78541;SHT31;67835;51.968;5.646;2023-05-21T11:11:58;35.8;28.0
78541;SHT31;67835;51.968;5.646;2023-05-21T11:14:34;35.9;28.4
78541;SHT31;67835;51.968;5.646;2023-05-21T11:17:14;36.1;28.6
78541;SHT31;67835;51.968;5.646;2023-05-21T11:19:45;36.3;27.8
78541;SHT31;67835;51.968;5.646;2023-05-21T11:22:25;36.5;27.6
78541;SHT31;67835;51.968;5.646;2023-05-21T11:24:55;36.6;26.9
78541;SHT31;67835;51.968;5.646;2023-05-21T11:27:32;36.7;27.0
78541;SHT31;67835;51.968;5.646;2023-05-21T11:30:04;36.8;27.6
78541;SHT31;67835;51.968;5.646;2023-05-21T11:32:35;36.9;27.2
78541;SHT31;67835;51.968;5.646;2023-05-21T11:35:06;37.0;28.1
78541;SHT31;67835;51.968;5.646;2023-05-21T11:37:35;37.1;26.6
78541;SHT31;67835;51.968;5.646;2023-05-21T11:40:24;37.2;26.5
78541;SHT31;67835;51.968;5.646;2023-05-21T11:42:56;37.3;26.4
78541;SHT31;67835;51.968;5.646;2023-05-21T11:45:30;37.3;26.4
78541;SHT31;67835;51.968;5.646;2023-05-21T11:48:00;37.2;26.4
78541;SHT31;67835;51.968;5.646;2023-05-21T11:50:29;37.2;26.7
78541;SHT31;67835;51.968;5.646;2023-05-21T11:53:00;37.1;27.0
78541;SHT31;67835;51.968;5.646;2023-05-21T11:55:30;37.1;26.5
78541;SHT31;67835;51.968;5.646;2023-05-21T11:57:59;37.1;26.7
78541;SHT31;67835;51.968;5.646;2023-05-21T12:00:30;37.0;26.5
78541;SHT31;67835;51.968;5.646;2023-05-21T12:03:04;37.0;26.4
78541;SHT31;67835;51.968;5.646;2023-05-21T12:05:45;36.9;26.7
78541;SHT31;67835;51.968;5.646;2023-05-21T12:08:22;36.8;28.1
78541;SHT31;67835;51.968;5.646;2023-05-21T12:10:56;36.8;27.6
78541;SHT31;67835;51.968;5.646;2023-05-21T12:13:25;36.7;26.9
78541;SHT31;67835;51.968;5.646;2023-05-21T12:15:55;36.7;27.2
78541;SHT31;67835;51.968;5.646;2023-05-21T12:18:24;36.7;28.0
78541;SHT31;67835;51.968;5.646;2023-05-21T12:20:52;36.6;27.2
78541;SHT31;67835;51.968;5.646;2023-05-21T12:23:22;36.6;26.7
78541;SHT31;67835;51.968;5.646;2023-05-21T12:25:52;36.5;27.2
78541;SHT31;67835;51.968;5.646;2023-05-21T12:28:24;36.4;27.9
78541;SHT31;67835;51.968;5.646;2023-05-21T12:30:53;36.4;26.9
78541;SHT31;67835;51.968;5.646;2023-05-21T12:33:21;36.3;26.9
78541;SHT31;67835;51.968;5.646;2023-05-21T12:35:51;36.2;27.4
78541;SHT31;67835;51.968;5.646;2023-05-21T12:38:20;36.1;27.5
78541;SHT31;67835;51.968;5.646;2023-05-21T12:40:48;36.0;27.5
78541;SHT31;67835;51.968;5.646;2023-05-21T12:43:18;35.9;27.9
78541;SHT31;67835;51.968;5.646;2023-05-21T12:45:47;35.8;27.7
78541;SHT31;67835;51.968;5.646;2023-05-21T12:48:16;35.7;28.2
78541;SHT31;67835;51.968;5.646;2023-05-21T12:50:44;35.7;28.6
78541;SHT31;67835;51.968;5.646;2023-05-21T12:53:13;35.6;27.6
78541;SHT31;67835;51.968;5.646;2023-05-21T12:55:41;35.5;28.0
78541;SHT31;67835;51.968;5.646;2023-05-21T12:58:12;35.3;28.4
78541;SHT31;67835;51.968;5.646;2023-05-21T13:00:43;35.2;27.8
78541;SHT31;67835;51.968;5.646;2023-05-21T13:03:13;35.0;28.5
78541;SHT31;67835;51.968;5.646;2023-05-21T13:05:45;34.8;28.5
78541;SHT31;67835;51.968;5.646;2023-05-21T13:08:13;34.6;28.8
78541;SHT31;67835;51.968;5.646;2023-05-21T13:10:42;34.4;29.6
78541;SHT31;67835;51.968;5.646;2023-05-21T13:13:11;34.3;30.0
78541;SHT31;67835;51.968;5.646;2023-05-21T13:15:39;34.2;29.7
78541;SHT31;67835;51.968;5.646;2023-05-21T13:18:08;34.1;30.7
78541;SHT31;67835;51.968;5.646;2023-05-21T13:20:37;34.0;30.4
78541;SHT31;67835;51.968;5.646;2023-05-21T13:23:06;34.0;30.8
78541;SHT31;67835;51.968;5.646;2023-05-21T13:25:36;34.0;30.9
78541;SHT31;67835;51.968;5.646;2023-05-21T13:28:06;34.0;30.2
78541;SHT31;67835;51.968;5.646;2023-05-21T13:30:36;34.0;30.6
78541;SHT31;67835;51.968;5.646;2023-05-21T13:33:05;34.0;31.0
78541;SHT31;67835;51.968;5.646;2023-05-21T13:35:34;34.0;30.7
78541;SHT31;67835;51.968;5.646;2023-05-21T13:38:02;34.0;30.4
78541;SHT31;67835;51.968;5.646;2023-05-21T13:40:33;34.0;30.0
78541;SHT31;67835;51.968;5.646;2023-05-21T13:43:02;34.0;30.6
78541;SHT31;67835;51.968;5.646;2023-05-21T13:45:30;34.0;30.0
78541;SHT31;67835;51.968;5.646;2023-05-21T13:47:59;34.0;29.7
78541;SHT31;67835;51.968;5.646;2023-05-21T13:50:27;33.9;29.4
78541;SHT31;67835;51.968;5.646;2023-05-21T13:52:56;33.8;30.4
78541;SHT31;67835;51.968;5.646;2023-05-21T13:55:24;33.7;31.4
78541;SHT31;67835;51.968;5.646;2023-05-21T13:57:53;33.6;31.6
78541;SHT31;67835;51.968;5.646;2023-05-21T14:00:21;33.6;32.0
78541;SHT31;67835;51.968;5.646;2023-05-21T14:02:50;33.6;31.6
78541;SHT31;67835;51.968;5.646;2023-05-21T14:05:21;33.7;30.4
78541;SHT31;67835;51.968;5.646;2023-05-21T14:07:49;33.7;31.5
78541;SHT31;67835;51.968;5.646;2023-05-21T14:10:18;33.6;32.2
78541;SHT31;67835;51.968;5.646;2023-05-21T14:12:47;33.7;30.9
78541;SHT31;67835;51.968;5.646;2023-05-21T14:15:17;33.7;30.7
78541;SHT31;67835;51.968;5.646;2023-05-21T14:17:45;33.7;31.6
78541;SHT31;67835;51.968;5.646;2023-05-21T14:20:14;33.7;31.2
78541;SHT31;67835;51.968;5.646;2023-05-21T14:22:42;33.7;31.1
78541;SHT31;67835;51.968;5.646;2023-05-21T14:25:13;33.7;31.4
78541;SHT31;67835;51.968;5.646;2023-05-21T14:27:42;33.7;31.8
78541;SHT31;67835;51.968;5.646;2023-05-21T14:30:11;33.7;31.6
78541;SHT31;67835;51.968;5.646;2023-05-21T14:32:39;33.8;31.1
78541;SHT31;67835;51.968;5.646;2023-05-21T14:35:08;33.8;31.4
78541;SHT31;67835;51.968;5.646;2023-05-21T14:37:37;33.8;31.1
78541;SHT31;67835;51.968;5.646;2023-05-21T14:40:10;33.8;30.6
78541;SHT31;67835;51.968;5.646;2023-05-21T14:42:39;33.8;30.4
78541;SHT31;67835;51.968;5.646;2023-05-21T14:45:09;33.8;30.7
78541;SHT31;67835;51.968;5.646;2023-05-21T14:47:37;33.7;31.5
78541;SHT31;67835;51.968;5.646;2023-05-21T14:50:07;33.6;31.7
78541;SHT31;67835;51.968;5.646;2023-05-21T14:52:36;33.6;31.1
78541;SHT31;67835;51.968;5.646;2023-05-21T14:55:09;33.6;32.2
78541;SHT31;67835;51.968;5.646;2023-05-21T14:57:43;33.6;31.2
78541;SHT31;67835;51.968;5.646;2023-05-21T15:00:14;33.6;32.1
78541;SHT31;67835;51.968;5.646;2023-05-21T15:02:43;33.6;30.5
78541;SHT31;67835;51.968;5.646;2023-05-21T15:05:11;33.6;31.4
78541;SHT31;67835;51.968;5.646;2023-05-21T15:07:40;33.6;31.2
78541;SHT31;67835;51.968;5.646;2023-05-21T15:10:10;33.6;30.8
78541;SHT31;67835;51.968;5.646;2023-05-21T15:12:39;33.5;31.1
78541;SHT31;67835;51.968;5.646;2023-05-21T15:15:10;33.5;31.8
78541;SHT31;67835;51.968;5.646;2023-05-21T15:17:39;33.4;31.6
78541;SHT31;67835;51.968;5.646;2023-05-21T15:20:09;33.4;32.5
78541;SHT31;67835;51.968;5.646;2023-05-21T15:22:40;33.4;31.3
78541;SHT31;67835;51.968;5.646;2023-05-21T15:25:11;33.4;31.3
78541;SHT31;67835;51.968;5.646;2023-05-21T15:27:40;33.4;31.7
78541;SHT31;67835;51.968;5.646;2023-05-21T15:30:10;33.3;32.3
78541;SHT31;67835;51.968;5.646;2023-05-21T15:32:39;33.3;31.6
78541;SHT31;67835;51.968;5.646;2023-05-21T15:35:10;33.3;31.6
78541;SHT31;67835;51.968;5.646;2023-05-21T15:37:38;33.3;32.0
78541;SHT31;67835;51.968;5.646;2023-05-21T15:40:10;33.3;31.7
78541;SHT31;67835;51.968;5.646;2023-05-21T15:42:38;33.3;31.5
78541;SHT31;67835;51.968;5.646;2023-05-21T15:45:08;33.3;32.0
78541;SHT31;67835;51.968;5.646;2023-05-21T15:47:37;33.2;32.3
78541;SHT31;67835;51.968;5.646;2023-05-21T15:50:08;33.2;32.6
78541;SHT31;67835;51.968;5.646;2023-05-21T15:52:39;33.2;32.4
78541;SHT31;67835;51.968;5.646;2023-05-21T15:55:09;33.2;32.1
78541;SHT31;67835;51.968;5.646;2023-05-21T15:57:39;33.1;32.8
78541;SHT31;67835;51.968;5.646;2023-05-21T16:00:08;33.1;32.5
78541;SHT31;67835;51.968;5.646;2023-05-21T16:02:38;33.2;32.2
78541;SHT31;67835;51.968;5.646;2023-05-21T16:05:08;33.2;32.0
78541;SHT31;67835;51.968;5.646;2023-05-21T16:07:36;33.2;32.0
78541;SHT31;67835;51.968;5.646;2023-05-21T16:10:09;33.2;31.9
78541;SHT31;67835;51.968;5.646;2023-05-21T16:12:37;33.1;32.4
78541;SHT31;67835;51.968;5.646;2023-05-21T16:15:07;33.0;32.2
78541;SHT31;67835;51.968;5.646;2023-05-21T16:17:36;32.9;32.1
78541;SHT31;67835;51.968;5.646;2023-05-21T16:20:08;32.7;32.9